sensor_id;sensor_type;location;lat;lon;timestamp;P1;durP1;ratioP1;P2;durP2;ratioP2
25231;SDS011;13176;51.140;6.290;2024-01-15T00:00:10;57.13;;;51.22;;
25231;SDS011;13176;51.140;6.290;2024-01-15T00:02:41;55.22;;;49.35;;
25231;SDS011;13176;51.140;6.290;2024-01-15T00:07:41;50.63;;;42.00;;
25231;SDS011;13176;51.140;6.290;2024-01-15T00:10:14;53.53;;;47.33;;
25231;SDS011;13176;51.140;6.290;2024-01-15T00:12:48;64.90;;;58.45;;
25231;SDS011;13176;51.140;6.290;2024-01-15T00:15:20;56.70;;;50.78;;
25231;SDS011;13176;51.140;6.290;2024-01-15T00:17:59;57.97;;;50.97;;
25231;SDS011;13176;51.140;6.290;2024-01-15T00:20:27;55.20;;;49.30;;
25231;SDS011;13176;51.140;6.290;2024-01-15T00:23:17;57.75;;;49.50;;
25231;SDS011;13176;51.140;6.290;2024-01-15T00:25:58;58.08;;;49.50;;
25231;SDS011;13176;51.140;6.290;2024-01-15T00:28:44;56.58;;;49.70;;
25231;SDS011;13176;51.140;6.290;2024-01-15T00:31:27;56.45;;;50.47;;
25231;SDS011;13176;51.140;6.290;2024-01-15T00:34:10;55.65;;;49.45;;
25231;SDS011;13176;51.140;6.290;2024-01-15T00:36:58;60.92;;;52.55;;
25231;SDS011;13176;51.140;6.290;2024-01-15T00:39:31;56.40;;;50.30;;
25231;SDS011;13176;51.140;6.290;2024-01-15T00:42:13;57.78;;;49.97;;
25231;SDS011;13176;51.140;6.290;2024-01-15T00:44:43;56.80;;;50.17;;
25231;SDS011;13176;51.140;6.290;2024-01-15T00:47:21;58.20;;;48.47;;
25231;SDS011;13176;51.140;6.290;2024-01-15T00:50:05;56.38;;;50.50;;
25231;SDS011;13176;51.140;6.290;2024-01-15T00:52:33;58.20;;;51.72;;
25231;SDS011;13176;51.140;6.290;2024-01-15T00:55:20;54.72;;;48.95;;
25231;SDS011;13176;51.140;6.290;2024-01-15T00:57:50;61.15;;;50.25;;
25231;SDS011;13176;51.140;6.290;2024-01-15T01:00:19;57.97;;;51.58;;
25231;SDS011;13176;51.140;6.290;2024-01-15T01:02:59;56.33;;;49.90;;
25231;SDS011;13176;51.140;6.290;2024-01-15T01:05:34;54.28;;;48.47;;
25231;SDS011;13176;51.140;6.290;2024-01-15T01:08:16;65.40;;;52.00;;
25231;SDS011;13176;51.140;6.290;2024-01-15T01:11:04;52.53;;;46.83;;
25231;SDS011;13176;51.140;6.290;2024-01-15T01:13:50;60.38;;;48.90;;
25231;SDS011;13176;51.140;6.290;2024-01-15T01:16:30;56.70;;;49.72;;
25231;SDS011;13176;51.140;6.290;2024-01-15T01:19:12;54.38;;;48.33;;
25231;SDS011;13176;51.140;6.290;2024-01-15T01:21:45;55.45;;;49.30;;
25231;SDS011;13176;51.140;6.290;2024-01-15T01:24:21;55.85;;;50.35;;
25231;SDS011;13176;51.140;6.290;2024-01-15T01:26:54;56.05;;;49.97;;
25231;SDS011;13176;51.140;6.290;2024-01-15T01:29:36;57.92;;;52.28;;
25231;SDS011;13176;51.140;6.290;2024-01-15T01:32:07;55.28;;;49.40;;
25231;SDS011;13176;51.140;6.290;2024-01-15T01:34:43;57.92;;;50.22;;
25231;SDS011;13176;51.140;6.290;2024-01-15T01:37:22;57.53;;;51.60;;
25231;SDS011;13176;51.140;6.290;2024-01-15T01:40:02;68.72;;;61.42;;
25231;SDS011;13176;51.140;6.290;2024-01-15T01:42:33;53.80;;;47.97;;
25231;SDS011;13176;51.140;6.290;2024-01-15T01:47:38;50.10;;;44.80;;
25231;SDS011;13176;51.140;6.290;2024-01-15T01:50:13;50.85;;;45.17;;
25231;SDS011;13176;51.140;6.290;2024-01-15T01:52:47;57.15;;;51.13;;
25231;SDS011;13176;51.140;6.290;2024-01-15T01:55:21;53.35;;;47.78;;
25231;SDS011;13176;51.140;6.290;2024-01-15T01:58:06;57.25;;;51.35;;
25231;SDS011;13176;51.140;6.290;2024-01-15T02:00:40;53.63;;;48.05;;
25231;SDS011;13176;51.140;6.290;2024-01-15T02:03:44;55.80;;;49.95;;
25231;SDS011;13176;51.140;6.290;2024-01-15T02:06:18;58.47;;;52.63;;
25231;SDS011;13176;51.140;6.290;2024-01-15T02:12:03;51.47;;;46.40;;
25231;SDS011;13176;51.140;6.290;2024-01-15T02:18:17;51.47;;;46.58;;
25231;SDS011;13176;51.140;6.290;2024-01-15T02:20:54;52.08;;;46.70;;
25231;SDS011;13176;51.140;6.290;2024-01-15T02:24:13;50.25;;;45.38;;
25231;SDS011;13176;51.140;6.290;2024-01-15T02:27:23;49.92;;;44.78;;
25231;SDS011;13176;51.140;6.290;2024-01-15T02:30:15;58.55;;;53.33;;
25231;SDS011;13176;51.140;6.290;2024-01-15T02:33:17;47.95;;;43.15;;
25231;SDS011;13176;51.140;6.290;2024-01-15T02:36:43;48.47;;;43.80;;
25231;SDS011;13176;51.140;6.290;2024-01-15T02:39:40;51.72;;;46.80;;
25231;SDS011;13176;51.140;6.290;2024-01-15T02:46:11;49.85;;;45.05;;
25231;SDS011;13176;51.140;6.290;2024-01-15T02:49:03;54.17;;;48.97;;
25231;SDS011;13176;51.140;6.290;2024-01-15T02:52:36;50.83;;;45.72;;
25231;SDS011;13176;51.140;6.290;2024-01-15T02:55:34;51.55;;;46.17;;
25231;SDS011;13176;51.140;6.290;2024-01-15T02:58:44;46.85;;;42.00;;
25231;SDS011;13176;51.140;6.290;2024-01-15T03:02:15;52.15;;;46.83;;
25231;SDS011;13176;51.140;6.290;2024-01-15T03:05:28;51.53;;;46.40;;
25231;SDS011;13176;51.140;6.290;2024-01-15T03:08:33;51.35;;;46.42;;
25231;SDS011;13176;51.140;6.290;2024-01-15T03:11:08;52.35;;;47.42;;
25231;SDS011;13176;51.140;6.290;2024-01-15T03:13:51;53.25;;;47.88;;
25231;SDS011;13176;51.140;6.290;2024-01-15T03:16:52;50.85;;;46.10;;
25231;SDS011;13176;51.140;6.290;2024-01-15T03:19:39;50.60;;;45.50;;
25231;SDS011;13176;51.140;6.290;2024-01-15T03:22:43;46.92;;;42.17;;
25231;SDS011;13176;51.140;6.290;2024-01-15T03:25:13;50.75;;;45.40;;
25231;SDS011;13176;51.140;6.290;2024-01-15T03:27:58;50.50;;;45.65;;
25231;SDS011;13176;51.140;6.290;2024-01-15T03:31:03;46.83;;;42.67;;
25231;SDS011;13176;51.140;6.290;2024-01-15T03:34:29;46.20;;;41.83;;
25231;SDS011;13176;51.140;6.290;2024-01-15T03:37:35;48.75;;;44.17;;
25231;SDS011;13176;51.140;6.290;2024-01-15T03:40:31;49.15;;;44.85;;
25231;SDS011;13176;51.140;6.290;2024-01-15T03:43:04;50.20;;;45.53;;
25231;SDS011;13176;51.140;6.290;2024-01-15T03:46:01;46.05;;;41.70;;
25231;SDS011;13176;51.140;6.290;2024-01-15T03:48:45;51.15;;;46.17;;
25231;SDS011;13176;51.140;6.290;2024-01-15T03:51:25;51.55;;;46.35;;
25231;SDS011;13176;51.140;6.290;2024-01-15T03:53:56;49.67;;;45.25;;
25231;SDS011;13176;51.140;6.290;2024-01-15T03:56:49;50.25;;;45.17;;
25231;SDS011;13176;51.140;6.290;2024-01-15T03:59:46;49.55;;;44.88;;
25231;SDS011;13176;51.140;6.290;2024-01-15T04:02:33;50.30;;;45.10;;
25231;SDS011;13176;51.140;6.290;2024-01-15T04:05:06;50.83;;;46.17;;
25231;SDS011;13176;51.140;6.290;2024-01-15T04:07:35;51.10;;;46.45;;
25231;SDS011;13176;51.140;6.290;2024-01-15T04:10:04;48.95;;;44.40;;
25231;SDS011;13176;51.140;6.290;2024-01-15T04:12:39;48.95;;;44.50;;
25231;SDS011;13176;51.140;6.290;2024-01-15T04:15:47;47.50;;;42.88;;
25231;SDS011;13176;51.140;6.290;2024-01-15T04:18:34;46.85;;;42.75;;
25231;SDS011;13176;51.140;6.290;2024-01-15T04:21:05;47.45;;;43.35;;
25231;SDS011;13176;51.140;6.290;2024-01-15T04:23:49;46.67;;;42.55;;
25231;SDS011;13176;51.140;6.290;2024-01-15T04:26:18;47.88;;;43.80;;
25231;SDS011;13176;51.140;6.290;2024-01-15T04:28:45;47.58;;;43.08;;
25231;SDS011;13176;51.140;6.290;2024-01-15T04:31:22;47.15;;;42.60;;
25231;SDS011;13176;51.140;6.290;2024-01-15T04:33:53;46.97;;;42.53;;
25231;SDS011;13176;51.140;6.290;2024-01-15T04:36:20;45.53;;;41.25;;
25231;SDS011;13176;51.140;6.290;2024-01-15T04:38:47;45.83;;;41.80;;
25231;SDS011;13176;51.140;6.290;2024-01-15T04:41:14;45.63;;;41.97;;
25231;SDS011;13176;51.140;6.290;2024-01-15T04:43:42;44.50;;;40.58;;
25231;SDS011;13176;51.140;6.290;2024-01-15T04:46:10;44.50;;;40.35;;
25231;SDS011;13176;51.140;6.290;2024-01-15T04:48:37;44.33;;;40.50;;
25231;SDS011;13176;51.140;6.290;2024-01-15T04:51:04;43.42;;;39.65;;
25231;SDS011;13176;51.140;6.290;2024-01-15T04:53:34;42.95;;;38.95;;
25231;SDS011;13176;51.140;6.290;2024-01-15T04:56:01;45.10;;;41.47;;
25231;SDS011;13176;51.140;6.290;2024-01-15T04:58:28;42.00;;;38.78;;
25231;SDS011;13176;51.140;6.290;2024-01-15T05:01:01;45.47;;;41.92;;
25231;SDS011;13176;51.140;6.290;2024-01-15T05:03:28;43.97;;;40.17;;
25231;SDS011;13176;51.140;6.290;2024-01-15T05:05:56;43.95;;;40.45;;
25231;SDS011;13176;51.140;6.290;2024-01-15T05:08:22;42.10;;;38.65;;
25231;SDS011;13176;51.140;6.290;2024-01-15T05:10:49;42.72;;;39.33;;
25231;SDS011;13176;51.140;6.290;2024-01-15T05:13:15;41.58;;;38.35;;
25231;SDS011;13176;51.140;6.290;2024-01-15T05:15:42;41.97;;;38.88;;
25231;SDS011;13176;51.140;6.290;2024-01-15T05:18:09;43.05;;;39.30;;
25231;SDS011;13176;51.140;6.290;2024-01-15T05:20:38;41.42;;;38.22;;
25231;SDS011;13176;51.140;6.290;2024-01-15T05:23:04;40.83;;;37.63;;
25231;SDS011;13176;51.140;6.290;2024-01-15T05:25:31;43.67;;;40.22;;
25231;SDS011;13176;51.140;6.290;2024-01-15T05:27:57;44.30;;;40.53;;
25231;SDS011;13176;51.140;6.290;2024-01-15T05:30:24;40.95;;;37.40;;
25231;SDS011;13176;51.140;6.290;2024-01-15T05:32:51;43.33;;;40.03;;
25231;SDS011;13176;51.140;6.290;2024-01-15T05:35:18;44.33;;;40.97;;
25231;SDS011;13176;51.140;6.290;2024-01-15T05:37:46;43.50;;;40.10;;
25231;SDS011;13176;51.140;6.290;2024-01-15T05:40:18;43.08;;;39.85;;
25231;SDS011;13176;51.140;6.290;2024-01-15T05:42:45;44.63;;;41.33;;
25231;SDS011;13176;51.140;6.290;2024-01-15T05:45:14;41.95;;;38.85;;
25231;SDS011;13176;51.140;6.290;2024-01-15T05:47:41;41.25;;;38.13;;
25231;SDS011;13176;51.140;6.290;2024-01-15T05:50:08;41.95;;;39.05;;
25231;SDS011;13176;51.140;6.290;2024-01-15T05:52:35;42.40;;;39.30;;
25231;SDS011;13176;51.140;6.290;2024-01-15T05:55:04;43.33;;;39.60;;
25231;SDS011;13176;51.140;6.290;2024-01-15T05:57:31;44.45;;;40.80;;
25231;SDS011;13176;51.140;6.290;2024-01-15T06:00:01;43.08;;;39.78;;
25231;SDS011;13176;51.140;6.290;2024-01-15T06:02:29;39.58;;;36.47;;
25231;SDS011;13176;51.140;6.290;2024-01-15T06:04:56;41.88;;;38.60;;
25231;SDS011;13176;51.140;6.290;2024-01-15T06:07:26;43.55;;;40.17;;
25231;SDS011;13176;51.140;6.290;2024-01-15T06:09:52;43.55;;;39.78;;
25231;SDS011;13176;51.140;6.290;2024-01-15T06:12:19;44.10;;;40.67;;
25231;SDS011;13176;51.140;6.290;2024-01-15T06:14:46;44.55;;;41.00;;
25231;SDS011;13176;51.140;6.290;2024-01-15T06:17:15;45.83;;;42.10;;
25231;SDS011;13176;51.140;6.290;2024-01-15T06:19:41;43.42;;;39.60;;
25231;SDS011;13176;51.140;6.290;2024-01-15T06:22:08;46.15;;;42.20;;
25231;SDS011;13176;51.140;6.290;2024-01-15T06:24:38;46.17;;;42.42;;
25231;SDS011;13176;51.140;6.290;2024-01-15T06:27:04;44.30;;;40.33;;
25231;SDS011;13176;51.140;6.290;2024-01-15T06:29:31;46.85;;;42.97;;
25231;SDS011;13176;51.140;6.290;2024-01-15T06:31:58;45.25;;;41.22;;
25231;SDS011;13176;51.140;6.290;2024-01-15T06:34:27;46.95;;;43.00;;
25231;SDS011;13176;51.140;6.290;2024-01-15T06:36:55;45.00;;;41.42;;
25231;SDS011;13176;51.140;6.290;2024-01-15T06:39:22;45.63;;;41.83;;
25231;SDS011;13176;51.140;6.290;2024-01-15T06:41:51;44.58;;;40.97;;
25231;SDS011;13176;51.140;6.290;2024-01-15T06:44:19;46.25;;;42.30;;
25231;SDS011;13176;51.140;6.290;2024-01-15T06:46:47;45.17;;;41.28;;
25231;SDS011;13176;51.140;6.290;2024-01-15T06:49:15;47.75;;;43.63;;
25231;SDS011;13176;51.140;6.290;2024-01-15T06:51:42;49.50;;;45.40;;
25231;SDS011;13176;51.140;6.290;2024-01-15T06:54:11;47.35;;;43.42;;
25231;SDS011;13176;51.140;6.290;2024-01-15T06:56:39;44.80;;;41.05;;
25231;SDS011;13176;51.140;6.290;2024-01-15T06:59:06;48.50;;;44.47;;
25231;SDS011;13176;51.140;6.290;2024-01-15T07:01:32;43.88;;;40.08;;
25231;SDS011;13176;51.140;6.290;2024-01-15T07:03:59;46.13;;;41.70;;
25231;SDS011;13176;51.140;6.290;2024-01-15T07:06:29;46.15;;;42.15;;
25231;SDS011;13176;51.140;6.290;2024-01-15T07:08:57;45.90;;;41.95;;
25231;SDS011;13176;51.140;6.290;2024-01-15T07:11:23;45.05;;;41.22;;
25231;SDS011;13176;51.140;6.290;2024-01-15T07:14:01;46.85;;;42.35;;
25231;SDS011;13176;51.140;6.290;2024-01-15T07:16:27;48.90;;;44.92;;
25231;SDS011;13176;51.140;6.290;2024-01-15T07:19:15;50.17;;;45.47;;
25231;SDS011;13176;51.140;6.290;2024-01-15T07:21:48;47.90;;;43.30;;
25231;SDS011;13176;51.140;6.290;2024-01-15T07:24:25;52.60;;;47.70;;
25231;SDS011;13176;51.140;6.290;2024-01-15T07:26:52;51.85;;;47.10;;
25231;SDS011;13176;51.140;6.290;2024-01-15T07:29:24;49.92;;;45.28;;
25231;SDS011;13176;51.140;6.290;2024-01-15T07:31:51;53.95;;;49.05;;
25231;SDS011;13176;51.140;6.290;2024-01-15T07:34:18;53.28;;;48.40;;
25231;SDS011;13176;51.140;6.290;2024-01-15T07:36:48;52.95;;;46.63;;
25231;SDS011;13176;51.140;6.290;2024-01-15T07:39:19;45.33;;;40.65;;
25231;SDS011;13176;51.140;6.290;2024-01-15T07:41:50;51.30;;;45.78;;
25231;SDS011;13176;51.140;6.290;2024-01-15T07:44:21;49.38;;;44.58;;
25231;SDS011;13176;51.140;6.290;2024-01-15T07:46:54;51.13;;;46.42;;
25231;SDS011;13176;51.140;6.290;2024-01-15T07:49:26;51.63;;;47.08;;
25231;SDS011;13176;51.140;6.290;2024-01-15T07:51:58;49.67;;;44.50;;
25231;SDS011;13176;51.140;6.290;2024-01-15T07:54:25;47.47;;;43.22;;
25231;SDS011;13176;51.140;6.290;2024-01-15T07:59:32;47.72;;;43.25;;
25231;SDS011;13176;51.140;6.290;2024-01-15T08:03:10;47.90;;;43.47;;
25231;SDS011;13176;51.140;6.290;2024-01-15T08:05:43;48.53;;;44.17;;
25231;SDS011;13176;51.140;6.290;2024-01-15T08:08:21;49.63;;;45.38;;
25231;SDS011;13176;51.140;6.290;2024-01-15T08:10:48;49.50;;;45.15;;
25231;SDS011;13176;51.140;6.290;2024-01-15T08:13:15;49.30;;;44.70;;
25231;SDS011;13176;51.140;6.290;2024-01-15T08:15:54;49.15;;;44.63;;
25231;SDS011;13176;51.140;6.290;2024-01-15T08:18:20;48.03;;;43.72;;
25231;SDS011;13176;51.140;6.290;2024-01-15T08:20:50;47.97;;;43.55;;
25231;SDS011;13176;51.140;6.290;2024-01-15T08:23:29;51.60;;;47.10;;
25231;SDS011;13176;51.140;6.290;2024-01-15T08:25:57;50.53;;;46.30;;
25231;SDS011;13176;51.140;6.290;2024-01-15T08:28:24;49.05;;;44.53;;
25231;SDS011;13176;51.140;6.290;2024-01-15T08:30:51;52.00;;;47.05;;
25231;SDS011;13176;51.140;6.290;2024-01-15T08:33:18;50.50;;;45.97;;
25231;SDS011;13176;51.140;6.290;2024-01-15T08:35:47;50.45;;;45.67;;
25231;SDS011;13176;51.140;6.290;2024-01-15T08:38:15;49.08;;;44.65;;
25231;SDS011;13176;51.140;6.290;2024-01-15T08:40:42;51.50;;;46.47;;
25231;SDS011;13176;51.140;6.290;2024-01-15T08:43:09;51.22;;;46.53;;
25231;SDS011;13176;51.140;6.290;2024-01-15T08:45:36;49.60;;;45.28;;
25231;SDS011;13176;51.140;6.290;2024-01-15T08:48:03;48.17;;;43.30;;
25231;SDS011;13176;51.140;6.290;2024-01-15T08:50:30;44.70;;;40.83;;
25231;SDS011;13176;51.140;6.290;2024-01-15T08:53:00;45.65;;;41.47;;
25231;SDS011;13176;51.140;6.290;2024-01-15T08:55:27;45.78;;;42.25;;
25231;SDS011;13176;51.140;6.290;2024-01-15T08:57:53;42.95;;;39.63;;
25231;SDS011;13176;51.140;6.290;2024-01-15T09:00:20;42.88;;;39.50;;
25231;SDS011;13176;51.140;6.290;2024-01-15T09:02:58;43.65;;;40.55;;
25231;SDS011;13176;51.140;6.290;2024-01-15T09:05:30;42.60;;;39.60;;
25231;SDS011;13176;51.140;6.290;2024-01-15T09:37:51;40.28;;;37.42;;
25231;SDS011;13176;51.140;6.290;2024-01-15T09:40:39;43.28;;;40.28;;
25231;SDS011;13176;51.140;6.290;2024-01-15T09:43:09;41.25;;;38.47;;
25231;SDS011;13176;51.140;6.290;2024-01-15T09:45:41;38.63;;;36.03;;
25231;SDS011;13176;51.140;6.290;2024-01-15T09:48:09;36.92;;;34.63;;
25231;SDS011;13176;51.140;6.290;2024-01-15T09:50:36;38.53;;;36.25;;
25231;SDS011;13176;51.140;6.290;2024-01-15T09:53:03;39.72;;;37.25;;
25231;SDS011;13176;51.140;6.290;2024-01-15T09:55:31;39.13;;;36.70;;
25231;SDS011;13176;51.140;6.290;2024-01-15T09:58:01;40.42;;;37.97;;
25231;SDS011;13176;51.140;6.290;2024-01-15T10:00:29;39.50;;;37.08;;
25231;SDS011;13176;51.140;6.290;2024-01-15T10:02:57;39.78;;;37.17;;
25231;SDS011;13176;51.140;6.290;2024-01-15T10:05:26;39.47;;;37.08;;
25231;SDS011;13176;51.140;6.290;2024-01-15T10:07:58;41.53;;;39.08;;
25231;SDS011;13176;51.140;6.290;2024-01-15T10:10:30;37.03;;;34.60;;
25231;SDS011;13176;51.140;6.290;2024-01-15T10:13:00;37.00;;;34.90;;
25231;SDS011;13176;51.140;6.290;2024-01-15T10:15:27;35.28;;;33.28;;
25231;SDS011;13176;51.140;6.290;2024-01-15T10:22:17;37.33;;;34.90;;
25231;SDS011;13176;51.140;6.290;2024-01-15T10:24:53;35.97;;;33.63;;
25231;SDS011;13176;51.140;6.290;2024-01-15T10:29:50;32.72;;;30.90;;
25231;SDS011;13176;51.140;6.290;2024-01-15T10:32:16;37.25;;;35.10;;
25231;SDS011;13176;51.140;6.290;2024-01-15T10:34:43;36.50;;;34.47;;
25231;SDS011;13176;51.140;6.290;2024-01-15T10:37:13;37.63;;;35.42;;
25231;SDS011;13176;51.140;6.290;2024-01-15T10:39:43;34.63;;;32.45;;
25231;SDS011;13176;51.140;6.290;2024-01-15T10:42:12;40.10;;;37.63;;
25231;SDS011;13176;51.140;6.290;2024-01-15T10:44:39;44.08;;;41.47;;
25231;SDS011;13176;51.140;6.290;2024-01-15T10:52:35;35.45;;;33.35;;
25231;SDS011;13176;51.140;6.290;2024-01-15T10:57:48;35.35;;;33.08;;
25231;SDS011;13176;51.140;6.290;2024-01-15T11:17:11;34.40;;;32.40;;
25231;SDS011;13176;51.140;6.290;2024-01-15T11:55:45;32.58;;;30.20;;
25231;SDS011;13176;51.140;6.290;2024-01-15T11:58:17;32.50;;;30.38;;
25231;SDS011;13176;51.140;6.290;2024-01-15T12:00:47;30.83;;;28.95;;
25231;SDS011;13176;51.140;6.290;2024-01-15T12:03:16;32.47;;;30.23;;
25231;SDS011;13176;51.140;6.290;2024-01-15T12:05:45;30.95;;;28.40;;
25231;SDS011;13176;51.140;6.290;2024-01-15T12:08:12;33.88;;;31.33;;
25231;SDS011;13176;51.140;6.290;2024-01-15T12:10:39;30.83;;;28.70;;
25231;SDS011;13176;51.140;6.290;2024-01-15T12:13:11;34.63;;;32.10;;
25231;SDS011;13176;51.140;6.290;2024-01-15T12:15:44;36.67;;;34.33;;
25231;SDS011;13176;51.140;6.290;2024-01-15T12:18:16;36.72;;;34.03;;
25231;SDS011;13176;51.140;6.290;2024-01-15T12:20:57;38.63;;;36.20;;
25231;SDS011;13176;51.140;6.290;2024-01-15T12:24:09;34.20;;;31.67;;
25231;SDS011;13176;51.140;6.290;2024-01-15T12:26:37;35.40;;;33.08;;
25231;SDS011;13176;51.140;6.290;2024-01-15T12:29:06;43.22;;;40.10;;
25231;SDS011;13176;51.140;6.290;2024-01-15T12:31:36;39.50;;;37.00;;
25231;SDS011;13176;51.140;6.290;2024-01-15T12:34:04;36.72;;;33.90;;
25231;SDS011;13176;51.140;6.290;2024-01-15T12:36:37;38.42;;;36.00;;
25231;SDS011;13176;51.140;6.290;2024-01-15T12:39:11;37.58;;;35.20;;
25231;SDS011;13176;51.140;6.290;2024-01-15T12:41:38;38.83;;;36.63;;
25231;SDS011;13176;51.140;6.290;2024-01-15T12:44:05;36.70;;;34.50;;
25231;SDS011;13176;51.140;6.290;2024-01-15T12:46:40;36.03;;;33.67;;
25231;SDS011;13176;51.140;6.290;2024-01-15T12:49:13;38.60;;;35.83;;
25231;SDS011;13176;51.140;6.290;2024-01-15T12:51:43;40.63;;;37.78;;
25231;SDS011;13176;51.140;6.290;2024-01-15T12:54:18;38.25;;;36.03;;
25231;SDS011;13176;51.140;6.290;2024-01-15T12:56:45;37.95;;;35.47;;
25231;SDS011;13176;51.140;6.290;2024-01-15T12:59:15;37.75;;;35.40;;
25231;SDS011;13176;51.140;6.290;2024-01-15T13:01:45;36.78;;;34.45;;
25231;SDS011;13176;51.140;6.290;2024-01-15T13:04:23;38.75;;;36.17;;
25231;SDS011;13176;51.140;6.290;2024-01-15T13:06:54;37.33;;;35.15;;
25231;SDS011;13176;51.140;6.290;2024-01-15T13:09:22;37.47;;;35.38;;
25231;SDS011;13176;51.140;6.290;2024-01-15T13:11:49;31.45;;;29.80;;
25231;SDS011;13176;51.140;6.290;2024-01-15T13:14:18;32.80;;;31.00;;
25231;SDS011;13176;51.140;6.290;2024-01-15T13:16:50;37.15;;;34.95;;
25231;SDS011;13176;51.140;6.290;2024-01-15T13:19:17;33.97;;;32.08;;
25231;SDS011;13176;51.140;6.290;2024-01-15T13:21:45;35.65;;;33.70;;
25231;SDS011;13176;51.140;6.290;2024-01-15T13:24:12;37.03;;;34.85;;
25231;SDS011;13176;51.140;6.290;2024-01-15T13:26:48;36.08;;;34.08;;
25231;SDS011;13176;51.140;6.290;2024-01-15T13:29:15;35.35;;;33.35;;
25231;SDS011;13176;51.140;6.290;2024-01-15T13:31:50;34.80;;;32.85;;
25231;SDS011;13176;51.140;6.290;2024-01-15T13:34:17;37.55;;;35.35;;
25231;SDS011;13176;51.140;6.290;2024-01-15T13:36:43;39.83;;;37.63;;
25231;SDS011;13176;51.140;6.290;2024-01-15T13:39:10;40.38;;;38.20;;
25231;SDS011;13176;51.140;6.290;2024-01-15T13:41:37;35.58;;;33.58;;
25231;SDS011;13176;51.140;6.290;2024-01-15T13:44:03;36.00;;;34.00;;
25231;SDS011;13176;51.140;6.290;2024-01-15T13:46:30;37.25;;;35.22;;
25231;SDS011;13176;51.140;6.290;2024-01-15T13:48:57;35.13;;;33.22;;
25231;SDS011;13176;51.140;6.290;2024-01-15T13:51:24;38.63;;;36.47;;
25231;SDS011;13176;51.140;6.290;2024-01-15T13:53:53;33.50;;;31.70;;
25231;SDS011;13176;51.140;6.290;2024-01-15T13:56:19;36.30;;;33.97;;
25231;SDS011;13176;51.140;6.290;2024-01-15T13:58:46;32.72;;;30.90;;
25231;SDS011;13176;51.140;6.290;2024-01-15T14:01:18;33.75;;;31.80;;
25231;SDS011;13176;51.140;6.290;2024-01-15T14:03:44;35.45;;;33.30;;
25231;SDS011;13176;51.140;6.290;2024-01-15T14:06:11;38.08;;;35.92;;
25231;SDS011;13176;51.140;6.290;2024-01-15T14:08:38;45.17;;;42.47;;
25231;SDS011;13176;51.140;6.290;2024-01-15T14:11:05;35.40;;;33.38;;
25231;SDS011;13176;51.140;6.290;2024-01-15T14:13:36;37.75;;;35.65;;
25231;SDS011;13176;51.140;6.290;2024-01-15T14:16:02;36.17;;;34.20;;
25231;SDS011;13176;51.140;6.290;2024-01-15T14:18:31;36.85;;;34.78;;
25231;SDS011;13176;51.140;6.290;2024-01-15T14:21:00;37.63;;;35.47;;
25231;SDS011;13176;51.140;6.290;2024-01-15T14:23:27;34.97;;;33.08;;
25231;SDS011;13176;51.140;6.290;2024-01-15T14:25:56;38.75;;;36.60;;
25231;SDS011;13176;51.140;6.290;2024-01-15T14:28:23;38.67;;;36.22;;
25231;SDS011;13176;51.140;6.290;2024-01-15T14:30:52;36.33;;;34.38;;
25231;SDS011;13176;51.140;6.290;2024-01-15T14:33:19;35.10;;;32.80;;
25231;SDS011;13176;51.140;6.290;2024-01-15T14:35:48;36.67;;;34.58;;
25231;SDS011;13176;51.140;6.290;2024-01-15T14:38:18;35.58;;;33.60;;
25231;SDS011;13176;51.140;6.290;2024-01-15T14:40:50;34.60;;;32.70;;
25231;SDS011;13176;51.140;6.290;2024-01-15T14:43:16;34.67;;;32.67;;
25231;SDS011;13176;51.140;6.290;2024-01-15T14:45:46;35.28;;;33.15;;
25231;SDS011;13176;51.140;6.290;2024-01-15T14:48:15;34.67;;;32.78;;
25231;SDS011;13176;51.140;6.290;2024-01-15T14:50:42;35.85;;;33.88;;
25231;SDS011;13176;51.140;6.290;2024-01-15T14:53:12;33.70;;;31.70;;
25231;SDS011;13176;51.140;6.290;2024-01-15T14:55:38;33.03;;;31.08;;
25231;SDS011;13176;51.140;6.290;2024-01-15T15:01:00;31.20;;;29.50;;
25231;SDS011;13176;51.140;6.290;2024-01-15T15:03:27;36.72;;;34.75;;
25231;SDS011;13176;51.140;6.290;2024-01-15T15:08:48;27.27;;;25.67;;
25231;SDS011;13176;51.140;6.290;2024-01-15T15:11:55;32.40;;;30.45;;
25231;SDS011;13176;51.140;6.290;2024-01-15T15:14:30;29.83;;;27.92;;
25231;SDS011;13176;51.140;6.290;2024-01-15T15:17:32;31.52;;;29.35;;
25231;SDS011;13176;51.140;6.290;2024-01-15T15:20:05;33.00;;;31.13;;
25231;SDS011;13176;51.140;6.290;2024-01-15T15:22:44;33.63;;;31.70;;
25231;SDS011;13176;51.140;6.290;2024-01-15T15:25:17;33.63;;;31.73;;
25231;SDS011;13176;51.140;6.290;2024-01-15T15:27:43;33.08;;;31.13;;
25231;SDS011;13176;51.140;6.290;2024-01-15T15:30:50;29.30;;;27.60;;
25231;SDS011;13176;51.140;6.290;2024-01-15T15:33:17;29.45;;;27.92;;
25231;SDS011;13176;51.140;6.290;2024-01-15T15:35:47;28.02;;;26.17;;
25231;SDS011;13176;51.140;6.290;2024-01-15T15:38:19;34.40;;;32.40;;
25231;SDS011;13176;51.140;6.290;2024-01-15T15:41:00;28.27;;;26.65;;
25231;SDS011;13176;51.140;6.290;2024-01-15T15:43:31;29.63;;;27.98;;
25231;SDS011;13176;51.140;6.290;2024-01-15T15:45:59;29.40;;;27.75;;
25231;SDS011;13176;51.140;6.290;2024-01-15T15:48:30;33.85;;;31.45;;
25231;SDS011;13176;51.140;6.290;2024-01-15T15:50:58;34.78;;;32.88;;
25231;SDS011;13176;51.140;6.290;2024-01-15T15:53:28;31.92;;;30.02;;
25231;SDS011;13176;51.140;6.290;2024-01-15T15:55:58;33.17;;;31.27;;
25231;SDS011;13176;51.140;6.290;2024-01-15T15:58:49;29.60;;;27.80;;
25231;SDS011;13176;51.140;6.290;2024-01-15T16:01:15;32.22;;;30.33;;
25231;SDS011;13176;51.140;6.290;2024-01-15T16:03:48;33.40;;;31.33;;
25231;SDS011;13176;51.140;6.290;2024-01-15T16:06:17;31.02;;;29.13;;
25231;SDS011;13176;51.140;6.290;2024-01-15T16:08:45;35.20;;;32.65;;
25231;SDS011;13176;51.140;6.290;2024-01-15T16:11:12;30.45;;;28.52;;
25231;SDS011;13176;51.140;6.290;2024-01-15T16:13:38;34.63;;;31.88;;
25231;SDS011;13176;51.140;6.290;2024-01-15T16:16:26;34.88;;;32.60;;
25231;SDS011;13176;51.140;6.290;2024-01-15T16:19:13;39.22;;;36.78;;
25231;SDS011;13176;51.140;6.290;2024-01-15T16:22:00;31.65;;;29.27;;
25231;SDS011;13176;51.140;6.290;2024-01-15T16:24:46;33.05;;;30.77;;
25231;SDS011;13176;51.140;6.290;2024-01-15T16:27:39;29.05;;;27.15;;
25231;SDS011;13176;51.140;6.290;2024-01-15T16:30:08;33.53;;;31.15;;
25231;SDS011;13176;51.140;6.290;2024-01-15T16:32:51;30.10;;;28.05;;
25231;SDS011;13176;51.140;6.290;2024-01-15T16:35:18;31.65;;;29.27;;
25231;SDS011;13176;51.140;6.290;2024-01-15T16:37:44;29.45;;;27.17;;
25231;SDS011;13176;51.140;6.290;2024-01-15T16:40:11;33.60;;;31.13;;
25231;SDS011;13176;51.140;6.290;2024-01-15T16:42:38;30.52;;;28.33;;
25231;SDS011;13176;51.140;6.290;2024-01-15T16:45:05;33.83;;;31.27;;
25231;SDS011;13176;51.140;6.290;2024-01-15T16:47:32;35.63;;;33.20;;
25231;SDS011;13176;51.140;6.290;2024-01-15T16:49:59;30.08;;;27.90;;
25231;SDS011;13176;51.140;6.290;2024-01-15T16:52:26;33.42;;;31.42;;
25231;SDS011;13176;51.140;6.290;2024-01-15T16:54:52;30.75;;;28.85;;
25231;SDS011;13176;51.140;6.290;2024-01-15T16:57:19;33.72;;;31.63;;
25231;SDS011;13176;51.140;6.290;2024-01-15T16:59:46;35.42;;;33.20;;
25231;SDS011;13176;51.140;6.290;2024-01-15T17:02:12;30.83;;;28.38;;